Latest Weather Observations for Banana Bank

IDQ60901

Issued at 5:51 am EST Wednesday 2 September 2026 (issued every 10 minutes, with the page automatically refreshed every 10 minutes)

About weather observations | Map of Brisbane area stations | Latest observations for Brisbane area | Other Formats
Station Details ID: 040925 Name: BANANA BANK NORTH BEACON Lat: -27.53 Lon: 153.33 Height: 7.0 m
Data from the previous 72 hours. | See also: Recent months at Banana Bank
Date/Time
EST
Temp
°C
App
Temp
°C
Dew
Point
°C
Rel
Hum
%
Delta-T
°C
Wind Press
QNH
hPa
Press
MSL
hPa
Rain since
9am
mm
Dir  Spd
km/h
Gust
km/h
Spd
kts
Gust
kts
02/05:30am - - - - - SW 11 13 6 7 - - -
02/05:00am - - - - - WSW 13 17 7 9 - - -
02/04:30am - - - - - WSW 11 17 6 9 - - -
02/04:00am - - - - - WSW 9 13 5 7 - - -
02/03:30am - - - - - WNW 15 17 8 9 - - -
02/03:00am - - - - - WNW 11 13 6 7 - - -
02/02:30am - - - - - WNW 11 13 6 7 - - -
02/02:00am - - - - - WNW 11 13 6 7 - - -
02/01:30am - - - - - WNW 13 15 7 8 - - -
02/01:00am - - - - - WNW 13 15 7 8 - - -
02/12:30am - - - - - WNW 15 17 8 9 - - -
02/12:00am - - - - - NNW 15 17 8 9 - - -
 
Date/Time
EST
Temp
°C
App
Temp
°C
Dew
Point
°C
Rel
Hum
%
Delta-T
°C
Wind Press
QNH
hPa
Press
MSL
hPa
Rain since
9am
mm
Dir  Spd
km/h
Gust
km/h
Spd
kts
Gust
kts
01/11:30pm - - - - - NNW 17 19 9 10 - - -
01/11:00pm - - - - - N 13 19 7 10 - - -
01/10:30pm - - - - - NNE 7 7 4 4 - - -
01/10:00pm - - - - - NNE 6 7 3 4 - - -
01/09:30pm - - - - - NNE 6 7 3 4 - - -
01/09:00pm - - - - - NNE 6 7 3 4 - - -
01/08:30pm - - - - - NNE 7 9 4 5 - - -
01/08:00pm - - - - - NNE 6 6 3 3 - - -
01/07:30pm - - - - - NNE 6 6 3 3 - - -
01/07:00pm - - - - - NNE 7 7 4 4 - - -
01/06:30pm - - - - - N 9 11 5 6 - - -
01/06:00pm - - - - - N 9 11 5 6 - - -
01/05:30pm - - - - - N 9 13 5 7 - - -
01/05:00pm - - - - - N 15 19 8 10 - - -
01/04:30pm - - - - - N 19 20 10 11 - - -
01/04:00pm - - - - - N 15 19 8 10 - - -
01/03:30pm - - - - - NNW 9 13 5 7 - - -
01/03:00pm - - - - - N 7 9 4 5 - - -
01/02:30pm - - - - - NNW 6 9 3 5 - - -
01/02:00pm - - - - - NNE 7 9 4 5 - - -
01/01:30pm - - - - - E 9 13 5 7 - - -
01/01:00pm - - - - - ESE 9 13 5 7 - - -
01/12:30pm - - - - - SSE 9 11 5 6 - - -
01/12:00pm - - - - - S 7 9 4 5 - - -
01/11:30am - - - - - SSW 9 13 5 7 - - -
01/11:00am - - - - - S 9 15 5 8 - - -
01/10:30am - - - - - S 13 15 7 8 - - -
01/10:00am - - - - - S 15 19 8 10 - - -
01/09:30am - - - - - S 17 19 9 10 - - -
01/09:00am - - - - - SSW 17 19 9 10 - - -
01/08:30am - - - - - S 17 20 9 11 - - -
01/08:00am - - - - - SSE 13 17 7 9 - - -
01/07:30am - - - - - SSW 15 17 8 9 - - -
01/07:00am - - - - - S 15 19 8 10 - - -
01/06:30am - - - - - SSW 11 15 6 8 - - -
01/06:00am - - - - - S 11 13 6 7 - - -
01/05:30am - - - - - SSE 13 15 7 8 - - -
01/05:00am - - - - - S 19 20 10 11 - - -
01/04:30am - - - - - SSW 15 17 8 9 - - -
01/04:00am - - - - - SSW 15 17 8 9 - - -
01/03:30am - - - - - SSW 11 13 6 7 - - -
01/03:00am - - - - - SSE 9 11 5 6 - - -
01/02:30am - - - - - S 13 15 7 8 - - -
01/02:00am - - - - - S 13 15 7 8 - - -
01/01:30am - - - - - S 13 17 7 9 - - -
01/01:00am - - - - - S 15 19 8 10 - - -
01/12:30am - - - - - S 15 19 8 10 - - -
01/12:00am - - - - - S 17 20 9 11 - - -
 
Date/Time
EST
Temp
°C
App
Temp
°C
Dew
Point
°C
Rel
Hum
%
Delta-T
°C
Wind Press
QNH
hPa
Press
MSL
hPa
Rain since
9am
mm
Dir  Spd
km/h
Gust
km/h
Spd
kts
Gust
kts
31/11:30pm - - - - - S 17 20 9 11 - - -
31/11:00pm - - - - - S 13 15 7 8 - - -
31/10:30pm - - - - - S 11 15 6 8 - - -
31/10:00pm - - - - - SSE 15 19 8 10 - - -
31/09:30pm - - - - - S 17 20 9 11 - - -
31/09:00pm - - - - - SSE 17 22 9 12 - - -
31/08:30pm - - - - - SSE 26 35 14 19 - - -
31/08:00pm - - - - - SE 15 22 8 12 - - -
31/07:30pm - - - - - ESE 13 15 7 8 - - -
31/07:00pm - - - - - SE 9 13 5 7 - - -
31/06:30pm - - - - - NE 9 13 5 7 - - -
31/06:00pm - - - - - SE 15 17 8 9 - - -
31/05:30pm - - - - - SE 20 24 11 13 - - -
31/05:00pm - - - - - SE 19 22 10 12 - - -
31/04:30pm - - - - - SE 17 20 9 11 - - -
31/04:00pm - - - - - ESE 28 32 15 17 - - -
31/03:30pm - - - - - ESE 30 33 16 18 - - -
31/03:00pm - - - - - SE 26 33 14 18 - - -
31/02:30pm - - - - - SE 30 35 16 19 - - -
31/02:00pm - - - - - SE 28 32 15 17 - - -
31/01:30pm - - - - - SE 26 33 14 18 - - -
31/01:00pm - - - - - ESE 26 32 14 17 - - -
31/12:30pm - - - - - ESE 30 35 16 19 - - -
31/12:00pm - - - - - SE 26 35 14 19 - - -
31/11:30am - - - - - SE 20 24 11 13 - - -
31/11:00am - - - - - SE 17 20 9 11 - - -
31/10:30am - - - - - SSE 17 20 9 11 - - -
31/10:00am - - - - - S 15 19 8 10 - - -
31/09:30am - - - - - S 15 19 8 10 - - -
31/09:00am - - - - - SSE 17 19 9 10 - - -
31/08:30am - - - - - SSE 13 17 7 9 - - -
31/08:00am - - - - - SSW 9 11 5 6 - - -
31/07:30am - - - - - SSW 9 11 5 6 - - -
31/07:00am - - - - - SSW 9 11 5 6 - - -
31/06:30am - - - - - SSW 11 15 6 8 - - -
31/06:00am - - - - - SSW 15 17 8 9 - - -
31/05:30am - - - - - SSW 13 15 7 8 - - -
31/05:00am - - - - - SSW 15 19 8 10 - - -
31/04:30am - - - - - SSW 15 17 8 9 - - -
31/04:00am - - - - - SSW 13 17 7 9 - - -
31/03:30am - - - - - SSW 15 19 8 10 - - -
31/03:00am - - - - - SSW 15 19 8 10 - - -
31/02:30am - - - - - S 17 20 9 11 - - -
31/02:00am - - - - - S 19 22 10 12 - - -
31/01:30am - - - - - S 20 24 11 13 - - -
31/01:00am - - - - - S 20 24 11 13 - - -
31/12:30am - - - - - S 22 26 12 14 - - -
31/12:00am - - - - - S 20 26 11 14 - - -
 
Date/Time
EST
Temp
°C
App
Temp
°C
Dew
Point
°C
Rel
Hum
%
Delta-T
°C
Wind Press
QNH
hPa
Press
MSL
hPa
Rain since
9am
mm
Dir  Spd
km/h
Gust
km/h
Spd
kts
Gust
kts
30/11:30pm - - - - - S 22 26 12 14 - - -
30/11:00pm - - - - - S 15 19 8 10 - - -
30/10:30pm - - - - - S 17 20 9 11 - - -
30/10:00pm - - - - - S 15 19 8 10 - - -
30/09:30pm - - - - - S 17 20 9 11 - - -
30/09:00pm - - - - - SSE 17 22 9 12 - - -
30/08:30pm - - - - - SSE 22 28 12 15 - - -
30/08:00pm - - - - - SSE 22 28 12 15 - - -
30/07:30pm - - - - - SSE 26 30 14 16 - - -
30/07:00pm - - - - - SE 26 30 14 16 - - -
30/06:30pm - - - - - SSE 26 32 14 17 - - -
30/06:00pm - - - - - SE 30 37 16 20 - - -
30/05:30pm - - - - - SE 32 37 17 20 - - -
30/05:00pm - - - - - SE 35 41 19 22 - - -
30/04:30pm - - - - - SE 33 39 18 21 - - -
30/04:00pm - - - - - SE 33 41 18 22 - - -
30/03:30pm - - - - - SE 35 43 19 23 - - -
30/03:00pm - - - - - SE 33 39 18 21 - - -
30/02:30pm - - - - - SE 32 35 17 19 - - -
30/02:00pm - - - - - SE 32 39 17 21 - - -
30/01:30pm - - - - - SE 30 35 16 19 - - -
30/01:00pm - - - - - SE 30 35 16 19 - - -
30/12:30pm - - - - - SE 30 33 16 18 - - -
30/12:00pm - - - - - SE 30 35 16 19 - - -
30/11:30am - - - - - SSE 30 35 16 19 - - -
30/11:00am - - - - - SE 28 35 15 19 - - -
30/10:30am - - - - - SE 26 32 14 17 - - -
30/10:00am - - - - - SSE 26 32 14 17 - - -
30/09:30am - - - - - SSE 17 24 9 13 - - -
30/09:00am - - - - - SSW 11 13 6 7 - - -
30/08:30am - - - - - SW 11 17 6 9 - - -
30/08:00am - - - - - S 9 11 5 6 - - -
30/07:30am - - - - - S 11 15 6 8 - - -
30/07:00am - - - - - SSW 11 13 6 7 - - -
30/06:30am - - - - - SSW 13 17 7 9 - - -
30/06:00am - - - - - SSW 15 19 8 10 - - -

Latest Capital City Observations: Canberra | Sydney | Melbourne | Brisbane | Adelaide | Perth | Hobart | Darwin

Other formats

Comma delimited format used in spreadsheet applications
http://www.bom.gov.au/fwo/IDQ60901/IDQ60901.94591.axf

JavaScript Object Notation format (JSON) in row-major order
http://www.bom.gov.au/fwo/IDQ60901/IDQ60901.94591.json

Data quality

Most of these data are generated automatically and are frequently updated. Quality checks on data are not normally performed. It is possible for incorrect values to appear. Refer to information at About Latest Weather Observations and please check the disclaimer before using these data.